Time;durP1;ratioP1;P1;durP2;ratioP2;P2;SDS_P1;SDS_P2;PMS_P1;PMS_P2;Temp;Humidity;BMP_temperature;BMP_pressure;BME280_temperature;BME280_humidity;BME280_pressure;Samples;Min_cycle;Max_cycle;Signal;HPM_P1;HPM_P2
2022/03/02 00:00:18;;;;;;;30.27;24.03;;;;;;;-145.14;100.00;70583.66;4999385;28;20203;-71
2022/03/02 00:02:44;;;;;;;33.07;23.33;;;;;;;-145.14;100.00;70583.66;4997660;28;20744;-71
2022/03/02 00:05:10;;;;;;;34.97;24.90;;;;;;;-145.14;100.00;70583.66;4995492;28;20199;-71
2022/03/02 00:07:35;;;;;;;34.63;24.33;;;;;;;-145.14;100.00;70583.66;4996557;28;20220;-71
2022/03/02 00:10:01;;;;;;;30.83;23.57;;;;;;;-145.14;100.00;70583.66;4995559;28;20804;-71
2022/03/02 00:12:27;;;;;;;33.33;24.13;;;;;;;-145.14;100.00;70583.66;4999371;28;20209;-71
2022/03/02 00:14:52;;;;;;;34.93;25.57;;;;;;;-145.14;100.00;70583.66;4997101;28;20559;-71
2022/03/02 00:17:18;;;;;;;34.93;25.50;;;;;;;-145.14;100.00;70583.66;4994752;28;20201;-71
2022/03/02 00:19:44;;;;;;;32.63;23.77;;;;;;;-145.14;100.00;70583.66;4994440;28;20188;-71
2022/03/02 00:22:10;;;;;;;30.70;23.10;;;;;;;-145.14;100.00;70583.66;5000952;28;20608;-71
2022/03/02 00:24:35;;;;;;;32.90;23.70;;;;;;;-145.14;100.00;70583.66;4998176;28;20450;-71
2022/03/02 00:27:01;;;;;;;33.37;23.57;;;;;;;-145.14;100.00;70583.66;4995690;28;20440;-72
2022/03/02 00:29:26;;;;;;;33.20;24.63;;;;;;;-145.14;100.00;70583.66;4998536;28;20272;-71
2022/03/02 00:31:52;;;;;;;36.43;24.83;;;;;;;-145.14;100.00;70583.66;4997534;28;20216;-72
2022/03/02 00:34:17;;;;;;;35.90;25.80;;;;;;;-145.14;100.00;70583.66;4995965;28;20184;-71
2022/03/02 00:36:43;;;;;;;36.30;25.63;;;;;;;-145.14;100.00;70583.66;4999404;28;20220;-71
2022/03/02 00:39:09;;;;;;;32.30;23.50;;;;;;;-145.14;100.00;70583.66;4997936;28;20265;-71
2022/03/02 00:41:35;;;;;;;36.30;26.00;;;;;;;-145.14;100.00;70583.66;4999130;28;20209;-71
2022/03/02 00:44:01;;;;;;;33.83;24.63;;;;;;;-145.14;100.00;70583.66;4998668;28;20651;-71
2022/03/02 00:46:29;;;;;;;37.43;25.70;;;;;;;-145.14;100.00;70583.66;4997390;28;20789;-71
2022/03/02 00:49:03;;;;;;;35.10;25.70;;;;;;;-145.14;100.00;70583.66;4999046;28;20482;-71
2022/03/02 00:51:29;;;;;;;37.40;26.73;;;;;;;-145.14;100.00;70583.66;4999495;28;20480;-71
2022/03/02 00:53:54;;;;;;;33.27;25.63;;;;;;;-145.14;100.00;70583.66;5001860;28;20452;-71
2022/03/02 00:56:21;;;;;;;37.17;26.67;;;;;;;-145.14;100.00;70583.66;4997914;28;20464;-71
2022/03/02 00:58:46;;;;;;;37.93;26.80;;;;;;;-145.14;100.00;70583.66;4998940;28;20271;-71
2022/03/02 01:01:12;;;;;;;38.27;26.57;;;;;;;-145.14;100.00;70583.66;4994880;28;20562;-71
2022/03/02 01:03:37;;;;;;;37.73;27.40;;;;;;;-145.14;100.00;70583.66;4995148;28;20254;-71
2022/03/02 01:06:05;;;;;;;35.10;25.27;;;;;;;-145.14;100.00;70583.66;4992411;28;20208;-71
2022/03/02 01:08:31;;;;;;;37.43;26.87;;;;;;;-145.14;100.00;70583.66;5000212;28;20184;-71
2022/03/02 01:10:56;;;;;;;33.33;25.90;;;;;;;-145.14;100.00;70583.66;4998390;28;20987;-71
2022/03/02 01:13:22;;;;;;;35.83;25.87;;;;;;;-145.14;100.00;70583.66;4999324;28;20197;-71
2022/03/02 01:15:47;;;;;;;37.97;25.83;;;;;;;-145.14;100.00;70583.66;4992555;28;20667;-71
2022/03/02 01:18:13;;;;;;;34.10;25.27;;;;;;;-145.14;100.00;70583.66;4994885;28;20199;-71
2022/03/02 01:20:38;;;;;;;39.93;26.77;;;;;;;-145.14;100.00;70583.66;4999989;28;20562;-71
2022/03/02 01:23:04;;;;;;;34.40;24.57;;;;;;;-145.14;100.00;70583.66;5001663;28;20188;-71
2022/03/02 01:25:29;;;;;;;39.70;25.20;;;;;;;-145.14;100.00;70583.66;4997841;28;20635;-71
2022/03/02 01:27:55;;;;;;;35.43;25.70;;;;;;;-145.14;100.00;70583.66;4996999;28;20193;-71
2022/03/02 01:30:21;;;;;;;37.77;25.97;;;;;;;-145.14;100.00;70583.66;5003009;28;20189;-71
2022/03/02 01:32:47;;;;;;;33.00;24.90;;;;;;;-145.14;100.00;70583.66;5006363;28;20682;-71
2022/03/02 01:35:13;;;;;;;32.87;24.10;;;;;;;-145.14;100.00;70583.66;4998481;28;20550;-71
2022/03/02 01:37:38;;;;;;;37.30;25.27;;;;;;;-145.14;100.00;70583.66;5003250;28;20246;-71
2022/03/02 01:40:05;;;;;;;37.40;26.10;;;;;;;-145.14;100.00;70583.66;5001026;28;20220;-71
2022/03/02 01:42:31;;;;;;;35.10;25.33;;;;;;;-145.14;100.00;70583.66;4996827;28;20232;-71
2022/03/02 01:44:56;;;;;;;38.27;26.57;;;;;;;-145.14;100.00;70583.66;4997076;28;20472;-72
2022/03/02 01:47:27;;;;;;;37.50;25.20;;;;;;;-145.14;100.00;70583.66;5002109;28;20662;-71
2022/03/02 01:49:52;;;;;;;35.30;26.43;;;;;;;-145.14;100.00;70583.66;5002191;28;20224;-71
2022/03/02 01:52:17;;;;;;;35.27;25.30;;;;;;;-145.14;100.00;70583.66;4997958;28;20468;-71
2022/03/02 01:54:43;;;;;;;38.13;25.70;;;;;;;-145.14;100.00;70583.66;5002415;28;20181;-71
2022/03/02 01:57:09;;;;;;;37.57;25.87;;;;;;;-145.14;100.00;70583.66;4998057;28;21687;-71
2022/03/02 01:59:36;;;;;;;38.00;26.07;;;;;;;-145.14;100.00;70583.66;5000084;28;20216;-71
2022/03/02 02:02:01;;;;;;;39.77;25.10;;;;;;;-145.14;100.00;70583.66;4996917;28;20599;-71
2022/03/02 02:04:27;;;;;;;40.27;24.73;;;;;;;-145.14;100.00;70583.66;4999079;28;20463;-71
2022/03/02 02:06:53;;;;;;;36.83;24.60;;;;;;;-145.14;100.00;70583.66;4996724;28;20246;-71
2022/03/02 02:09:18;;;;;;;34.33;24.43;;;;;;;-145.14;100.00;70583.66;4999517;28;20685;-71
2022/03/02 02:11:44;;;;;;;36.43;25.17;;;;;;;-145.14;100.00;70583.66;4999253;28;20537;-71
2022/03/02 02:14:10;;;;;;;37.97;25.87;;;;;;;-145.14;100.00;70583.66;4998666;28;20203;-71
2022/03/02 02:16:35;;;;;;;33.13;25.10;;;;;;;-145.14;100.00;70583.66;4997611;28;20217;-71
2022/03/02 02:19:00;;;;;;;30.87;23.13;;;;;;;-145.14;100.00;70583.66;4996483;28;20193;-71
2022/03/02 02:21:28;;;;;;;34.00;23.90;;;;;;;-145.14;100.00;70583.66;4999188;28;21069;-71
2022/03/02 02:23:53;;;;;;;35.50;23.70;;;;;;;-145.14;100.00;70583.66;4997735;28;20208;-71
2022/03/02 02:26:21;;;;;;;32.63;23.63;;;;;;;-145.14;100.00;70583.66;4997484;28;20436;-71
2022/03/02 02:28:48;;;;;;;36.83;25.03;;;;;;;-145.14;100.00;70583.66;4997806;28;20592;-71
2022/03/02 02:31:13;;;;;;;34.00;23.37;;;;;;;-145.14;100.00;70583.66;4993442;28;20463;-71
2022/03/02 02:33:39;;;;;;;35.93;22.97;;;;;;;-145.14;100.00;70583.66;4999965;28;20819;-71
2022/03/02 02:36:05;;;;;;;31.13;23.87;;;;;;;-145.14;100.00;70583.66;4998436;28;20212;-71
2022/03/02 02:38:30;;;;;;;33.47;23.57;;;;;;;-145.14;100.00;70583.66;4995866;28;20688;-71
2022/03/02 02:40:56;;;;;;;36.23;23.90;;;;;;;-145.14;100.00;70583.66;4999767;28;20208;-71
2022/03/02 02:43:24;;;;;;;32.10;22.53;;;;;;;-145.14;100.00;70583.66;5000788;28;20628;-71
2022/03/02 02:45:50;;;;;;;31.23;22.60;;;;;;;-145.14;100.00;70583.66;5000130;28;20654;-71
2022/03/02 02:48:17;;;;;;;34.87;24.07;;;;;;;-145.14;100.00;70583.66;4999619;28;20444;-71
2022/03/02 02:50:42;;;;;;;28.33;21.47;;;;;;;-145.14;100.00;70583.66;4997226;28;20447;-71
2022/03/02 02:53:10;;;;;;;31.20;22.63;;;;;;;-145.14;100.00;70583.66;4998399;28;21040;-71
2022/03/02 02:55:36;;;;;;;33.23;23.63;;;;;;;-145.14;100.00;70583.66;4997821;28;20212;-71
2022/03/02 02:58:04;;;;;;;31.40;23.20;;;;;;;-145.14;100.00;70583.66;5000123;28;20448;-71
2022/03/02 03:00:33;;;;;;;32.63;22.20;;;;;;;-145.14;100.00;70583.66;4997058;28;20443;-71
2022/03/02 03:03:00;;;;;;;31.80;22.63;;;;;;;-145.14;100.00;70583.66;4994726;28;20450;-71
2022/03/02 03:05:31;;;;;;;30.93;22.47;;;;;;;-145.14;100.00;70583.66;4997307;28;20447;-71
2022/03/02 03:08:01;;;;;;;34.30;24.30;;;;;;;-145.14;100.00;70583.66;4996535;28;20474;-71
2022/03/02 03:10:27;;;;;;;34.83;22.63;;;;;;;-145.14;100.00;70583.66;5000411;28;20960;-71
2022/03/02 03:12:53;;;;;;;32.57;23.57;;;;;;;-145.14;100.00;70583.66;4999678;28;20510;-71
2022/03/02 03:15:20;;;;;;;31.90;23.00;;;;;;;-145.14;100.00;70583.66;4995491;28;20527;-71
2022/03/02 03:17:47;;;;;;;31.30;22.20;;;;;;;-145.14;100.00;70583.66;5002578;28;20444;-71
2022/03/02 03:20:15;;;;;;;32.50;22.50;;;;;;;-145.14;100.00;70583.66;5000718;28;20448;-71
2022/03/02 03:22:40;;;;;;;32.87;23.40;;;;;;;-145.14;100.00;70583.66;5008556;23;20514;-73
2022/03/02 03:25:07;;;;;;;31.87;23.87;;;;;;;-145.14;100.00;70583.66;4997998;28;20660;-73
2022/03/02 03:27:34;;;;;;;31.80;23.03;;;;;;;-145.14;100.00;70583.66;5000245;28;20185;-73
2022/03/02 03:30:00;;;;;;;31.00;23.50;;;;;;;-145.14;100.00;70583.66;4998216;28;20924;-72
2022/03/02 03:32:26;;;;;;;34.10;21.63;;;;;;;-145.14;100.00;70583.66;5001987;28;20463;-74
2022/03/02 03:34:52;;;;;;;29.40;22.07;;;;;;;-145.14;100.00;70583.66;4999071;28;20189;-73
2022/03/02 03:37:17;;;;;;;32.67;23.10;;;;;;;-145.14;100.00;70583.66;4999477;28;20800;-72
2022/03/02 03:39:43;;;;;;;34.47;23.50;;;;;;;-145.14;100.00;70583.66;4994872;28;20193;-73
2022/03/02 03:42:09;;;;;;;33.33;22.50;;;;;;;-145.14;100.00;70583.66;4997906;28;20209;-75
2022/03/02 03:44:34;;;;;;;32.00;22.50;;;;;;;-145.14;100.00;70583.66;4996931;28;20205;-72
2022/03/02 03:47:00;;;;;;;32.67;23.80;;;;;;;-145.14;100.00;70583.66;4996040;28;20445;-73
2022/03/02 03:49:25;;;;;;;29.63;22.77;;;;;;;-145.14;100.00;70583.66;4995125;28;20762;-72
2022/03/02 03:51:51;;;;;;;31.73;22.70;;;;;;;-145.14;100.00;70583.66;4999833;28;20247;-72
2022/03/02 03:54:17;;;;;;;34.83;23.10;;;;;;;-145.14;100.00;70583.66;4999693;28;20204;-73
2022/03/02 03:56:42;;;;;;;30.67;22.37;;;;;;;-145.14;100.00;70583.66;4998534;28;20717;-74
2022/03/02 03:59:08;;;;;;;32.30;23.97;;;;;;;-145.14;100.00;70583.66;4993699;28;20197;-76
2022/03/02 04:01:34;;;;;;;30.10;23.13;;;;;;;-145.14;100.00;70583.66;4992037;28;20221;-73
2022/03/02 04:03:59;;;;;;;29.60;22.90;;;;;;;-145.14;100.00;70583.66;4993502;28;20212;-72
2022/03/02 04:06:25;;;;;;;28.10;21.53;;;;;;;-145.14;100.00;70583.66;4992593;28;20196;-72
2022/03/02 04:08:50;;;;;;;28.73;20.97;;;;;;;-145.14;100.00;70583.66;4998067;28;20538;-72
2022/03/02 04:11:16;;;;;;;29.77;21.50;;;;;;;-145.14;100.00;70583.66;4996622;28;20604;-76
2022/03/02 04:13:41;;;;;;;30.00;21.33;;;;;;;-145.14;100.00;70583.66;4997844;28;20305;-74
2022/03/02 04:16:07;;;;;;;31.00;21.97;;;;;;;-145.14;100.00;70583.66;4996191;28;20225;-74
2022/03/02 04:18:32;;;;;;;29.50;20.57;;;;;;;-145.14;100.00;70583.66;5011556;28;20205;-71
2022/03/02 04:20:59;;;;;;;31.63;21.80;;;;;;;-145.14;100.00;70583.66;4993239;28;20290;-74
2022/03/02 04:23:26;;;;;;;27.40;20.87;;;;;;;-145.14;100.00;70583.66;4998343;28;20657;-75
2022/03/02 04:25:52;;;;;;;29.50;21.47;;;;;;;-145.14;100.00;70583.66;4996227;28;20521;-73
2022/03/02 04:28:17;;;;;;;32.37;21.60;;;;;;;-145.14;100.00;70583.66;4996954;28;20578;-73
2022/03/02 04:30:43;;;;;;;34.77;22.63;;;;;;;-145.14;100.00;70583.66;4996844;28;20654;-73
2022/03/02 04:33:08;;;;;;;29.67;21.20;;;;;;;-145.14;100.00;70583.66;4996614;28;20243;-73
2022/03/02 04:35:34;;;;;;;32.70;21.90;;;;;;;-145.14;100.00;70583.66;4995842;28;20240;-72
2022/03/02 04:38:01;;;;;;;29.60;20.63;;;;;;;-145.14;100.00;70583.66;4996837;28;20633;-73
2022/03/02 04:40:27;;;;;;;30.07;21.80;;;;;;;-145.14;100.00;70583.66;4995459;28;20452;-73
2022/03/02 04:42:54;;;;;;;30.60;21.77;;;;;;;-145.14;100.00;70583.66;4997560;28;20459;-72
2022/03/02 04:45:30;;;;;;;30.53;21.50;;;;;;;-145.14;100.00;70583.66;4992934;28;20944;-74
2022/03/02 04:47:57;;;;;;;29.40;21.50;;;;;;;-145.14;100.00;70583.66;4996056;28;20781;-76
2022/03/02 04:50:23;;;;;;;31.07;21.40;;;;;;;-145.14;100.00;70583.66;4994961;28;20449;-74
2022/03/02 04:52:49;;;;;;;32.47;21.90;;;;;;;-145.14;100.00;70583.66;4993750;28;20510;-74
2022/03/02 04:55:16;;;;;;;31.77;21.40;;;;;;;-145.14;100.00;70583.66;4997406;28;20206;-73
2022/03/02 04:57:45;;;;;;;34.23;22.23;;;;;;;-145.14;100.00;70583.66;4993366;28;20455;-74
2022/03/02 05:00:11;;;;;;;31.50;20.50;;;;;;;-145.14;100.00;70583.66;4992785;28;20447;-73
2022/03/02 05:02:37;;;;;;;30.03;21.87;;;;;;;-145.14;100.00;70583.66;4994113;28;20814;-75
2022/03/02 05:05:08;;;;;;;28.33;21.40;;;;;;;-145.14;100.00;70583.66;4992318;28;20239;-73
2022/03/02 05:07:34;;;;;;;32.97;22.40;;;;;;;-145.14;100.00;70583.66;4997452;28;20494;-73
2022/03/02 05:10:00;;;;;;;30.03;22.03;;;;;;;-145.14;100.00;70583.66;4991434;28;20949;-73
2022/03/02 05:12:25;;;;;;;27.37;20.87;;;;;;;-145.14;100.00;70583.66;4997716;28;20464;-76
2022/03/02 05:14:51;;;;;;;30.20;23.13;;;;;;;-145.14;100.00;70583.66;4994535;28;20502;-72
2022/03/02 05:17:16;;;;;;;30.30;21.30;;;;;;;-145.14;100.00;70583.66;4994359;28;20220;-75
2022/03/02 05:19:42;;;;;;;34.70;22.60;;;;;;;-145.14;100.00;70583.66;4989848;28;20196;-75
2022/03/02 05:22:07;;;;;;;30.40;22.60;;;;;;;-145.14;100.00;70583.66;4992957;28;20370;-73
2022/03/02 05:24:33;;;;;;;32.90;23.10;;;;;;;-145.14;100.00;70583.66;4992988;28;20321;-75
2022/03/02 05:26:59;;;;;;;29.90;21.23;;;;;;;-145.14;100.00;70583.66;4991441;28;20205;-74
2022/03/02 05:29:24;;;;;;;29.50;22.03;;;;;;;-145.14;100.00;70583.66;4992711;28;20192;-73
2022/03/02 05:31:50;;;;;;;30.33;21.60;;;;;;;-145.14;100.00;70583.66;4989062;28;20251;-73
2022/03/02 05:34:15;;;;;;;29.97;21.87;;;;;;;-145.14;100.00;70583.66;4988211;28;20562;-72
2022/03/02 05:36:41;;;;;;;34.57;23.27;;;;;;;-145.14;100.00;70583.66;4993135;28;20296;-73
2022/03/02 05:39:06;;;;;;;29.60;22.10;;;;;;;-145.14;100.00;70583.66;4989899;28;20185;-73
2022/03/02 05:41:33;;;;;;;33.13;23.23;;;;;;;-145.14;100.00;70583.66;4997180;28;20277;-74
2022/03/02 05:43:59;;;;;;;28.83;21.73;;;;;;;-145.14;100.00;70583.66;4990820;28;20618;-73
2022/03/02 05:46:25;;;;;;;32.43;22.70;;;;;;;-145.14;100.00;70583.66;4981578;28;20443;-71
2022/03/02 05:48:52;;;;;;;29.13;22.40;;;;;;;-145.14;100.00;70583.66;4987012;28;20464;-72
2022/03/02 05:51:18;;;;;;;32.50;23.50;;;;;;;-145.14;100.00;70583.66;4989791;28;20195;-74
2022/03/02 05:53:44;;;;;;;34.73;23.70;;;;;;;-145.14;100.00;70583.66;4987178;28;20547;-74
2022/03/02 05:56:10;;;;;;;36.17;22.70;;;;;;;-145.14;100.00;70583.66;4988415;28;20529;-74
2022/03/02 05:58:35;;;;;;;31.20;23.10;;;;;;;-145.14;100.00;70583.66;4986558;28;20787;-76
2022/03/02 06:01:01;;;;;;;28.83;21.87;;;;;;;-145.14;100.00;70583.66;4987002;28;20197;-74
2022/03/02 06:03:27;;;;;;;33.55;23.20;;;;;;;-145.14;100.00;70583.66;4987723;28;20216;-75
2022/03/02 06:05:52;;;;;;;29.93;22.13;;;;;;;-145.14;100.00;70583.66;4987738;28;20196;-73
2022/03/02 06:08:18;;;;;;;35.83;23.87;;;;;;;-145.14;100.00;70583.66;4991614;28;20193;-73
2022/03/02 06:10:45;;;;;;;31.15;22.00;;;;;;;-145.14;100.00;70583.66;4988748;28;21252;-75
2022/03/02 06:13:11;;;;;;;32.73;24.63;;;;;;;-145.14;100.00;70583.66;4991549;28;20209;-74
2022/03/02 06:15:37;;;;;;;34.17;23.43;;;;;;;-145.14;100.00;70583.66;4987797;28;20523;-72
2022/03/02 06:18:04;;;;;;;31.87;23.10;;;;;;;-145.14;100.00;70583.66;4990386;28;20537;-72
2022/03/02 06:20:30;;;;;;;33.97;23.33;;;;;;;-145.14;100.00;70583.66;4992427;28;20490;-76
2022/03/02 06:22:56;;;;;;;30.23;22.40;;;;;;;-145.14;100.00;70583.66;4994291;28;20507;-72
2022/03/02 06:25:21;;;;;;;35.35;24.10;;;;;;;-145.14;100.00;70583.66;4990648;28;20196;-73
2022/03/02 06:27:46;;;;;;;36.63;24.63;;;;;;;-145.14;100.00;70583.66;4993001;28;20478;-72
2022/03/02 06:30:13;;;;;;;33.80;23.50;;;;;;;-145.14;100.00;70583.66;4990244;28;20659;-72
2022/03/02 06:32:38;;;;;;;30.83;22.73;;;;;;;-145.14;100.00;70583.66;4991018;28;20220;-74
2022/03/02 06:35:06;;;;;;;34.87;24.70;;;;;;;-145.14;100.00;70583.66;4989498;28;21008;-75
2022/03/02 06:37:33;;;;;;;34.57;23.47;;;;;;;-145.14;100.00;70583.66;4989792;28;20185;-73
2022/03/02 06:40:00;;;;;;;31.73;22.87;;;;;;;-145.14;100.00;70583.66;4991788;28;20450;-71
2022/03/02 06:42:49;;;;;;;34.53;24.63;;;;;;;-145.14;100.00;70583.66;4992784;28;20968;-73
2022/03/02 06:45:26;;;;;;;37.23;23.53;;;;;;;-145.14;100.00;70583.66;5006973;28;20659;-73
2022/03/02 06:47:55;;;;;;;35.87;24.47;;;;;;;-145.14;100.00;70583.66;4990869;28;20440;-72
2022/03/02 06:50:30;;;;;;;38.97;25.10;;;;;;;-145.14;100.00;70583.66;4989951;28;20448;-72
2022/03/02 06:53:00;;;;;;;35.67;24.17;;;;;;;-145.14;100.00;70583.66;4991155;28;21472;-71
2022/03/02 06:55:26;;;;;;;37.27;24.90;;;;;;;-145.14;100.00;70583.66;4992549;28;20469;-72
2022/03/02 06:57:56;;;;;;;36.13;24.93;;;;;;;-145.14;100.00;70583.66;4978151;28;20979;-73
2022/03/02 07:00:23;;;;;;;34.07;24.03;;;;;;;-145.14;100.00;70583.66;4980165;28;20548;-73
2022/03/02 07:02:56;;;;;;;35.53;25.83;;;;;;;-145.14;100.00;70583.66;4986599;28;20472;-70
2022/03/02 07:05:21;;;;;;;36.10;25.40;;;;;;;-145.14;100.00;70583.66;4989045;28;20582;-71
2022/03/02 07:07:48;;;;;;;35.43;25.87;;;;;;;-145.14;100.00;70583.66;4994246;28;20527;-75
2022/03/02 07:10:14;;;;;;;38.37;25.70;;;;;;;-145.14;100.00;70583.66;4985759;28;20185;-73
2022/03/02 07:12:40;;;;;;;36.07;25.40;;;;;;;-145.14;100.00;70583.66;4985957;28;20471;-74
2022/03/02 07:15:07;;;;;;;33.40;25.47;;;;;;;-145.14;100.00;70583.66;4986459;28;20472;-74
2022/03/02 07:17:33;;;;;;;38.10;25.07;;;;;;;-145.14;100.00;70583.66;4987882;28;21376;-73
2022/03/02 07:20:00;;;;;;;32.10;24.63;;;;;;;-145.14;100.00;70583.66;4986408;28;21022;-73
2022/03/02 07:22:31;;;;;;;36.60;26.37;;;;;;;-145.14;100.00;70583.66;4976763;28;20217;-72
2022/03/02 07:25:05;;;;;;;35.73;25.40;;;;;;;-145.14;100.00;70583.66;4986799;28;20886;-77
2022/03/02 07:27:31;;;;;;;37.50;24.80;;;;;;;-145.14;100.00;70583.66;4976426;28;20522;-73
2022/03/02 07:29:57;;;;;;;38.60;25.87;;;;;;;-145.14;100.00;70583.66;4988891;28;20517;-72
2022/03/02 07:32:26;;;;;;;38.67;25.83;;;;;;;-145.14;100.00;70583.66;4986548;28;20666;-72
2022/03/02 07:34:56;;;;;;;39.10;26.30;;;;;;;-145.14;100.00;70583.66;4988814;28;20189;-75
2022/03/02 07:37:23;;;;;;;39.23;27.20;;;;;;;-145.14;100.00;70583.66;4992330;28;20483;-76
2022/03/02 07:39:49;;;;;;;37.93;26.27;;;;;;;-145.14;100.00;70583.66;4993428;28;20589;-73
2022/03/02 07:42:15;;;;;;;40.10;26.50;;;;;;;-145.14;100.00;70583.66;4991884;28;20518;-74
2022/03/02 07:44:41;;;;;;;34.50;26.17;;;;;;;-145.14;100.00;70583.66;4989903;28;20444;-73
2022/03/02 07:47:08;;;;;;;35.17;25.43;;;;;;;-145.14;100.00;70583.66;4990359;28;20224;-76
2022/03/02 07:49:34;;;;;;;36.00;25.50;;;;;;;-145.14;100.00;70583.66;5003167;28;20908;-76
2022/03/02 07:52:02;;;;;;;39.67;28.10;;;;;;;-145.14;100.00;70583.66;4987685;28;20499;-74
2022/03/02 07:54:30;;;;;;;42.30;27.30;;;;;;;-145.14;100.00;70583.66;4990229;28;20479;-74
2022/03/02 07:56:57;;;;;;;41.60;27.83;;;;;;;-145.14;100.00;70583.66;4985784;28;20483;-72
2022/03/02 07:59:23;;;;;;;38.33;27.10;;;;;;;-145.14;100.00;70583.66;4991705;28;20818;-74
2022/03/02 08:01:48;;;;;;;39.03;26.60;;;;;;;-145.14;100.00;70583.66;4987356;28;20459;-75
2022/03/02 08:04:14;;;;;;;40.70;28.17;;;;;;;-145.14;100.00;70583.66;4988106;28;20670;-73
2022/03/02 08:06:41;;;;;;;37.03;26.57;;;;;;;-145.14;100.00;70583.66;4989762;28;20276;-72
2022/03/02 08:09:09;;;;;;;38.60;26.20;;;;;;;-145.14;100.00;70583.66;4990218;28;20674;-74
2022/03/02 08:11:38;;;;;;;39.70;27.37;;;;;;;-145.14;100.00;70583.66;4992345;28;20444;-73
2022/03/02 08:14:05;;;;;;;40.97;27.53;;;;;;;-145.14;100.00;70583.66;4987164;28;20456;-71
2022/03/02 08:16:31;;;;;;;38.60;26.67;;;;;;;-145.14;100.00;70583.66;4988162;28;20530;-75
2022/03/02 08:18:58;;;;;;;32.53;24.97;;;;;;;-145.14;100.00;70583.66;4985844;28;20448;-75
2022/03/02 08:21:29;;;;;;;36.30;25.60;;;;;;;-145.14;100.00;70583.66;4988542;28;20443;-74
2022/03/02 08:23:58;;;;;;;36.07;27.07;;;;;;;-145.14;100.00;70583.66;4987760;28;20447;-73
2022/03/02 08:26:25;;;;;;;34.57;25.33;;;;;;;-145.14;100.00;70583.66;5003153;28;20558;-74
2022/03/02 08:29:00;;;;;;;39.20;26.53;;;;;;;-145.14;100.00;70583.66;4986055;28;20447;-73
2022/03/02 08:31:27;;;;;;;39.13;28.43;;;;;;;-145.14;100.00;70583.66;4992195;28;20448;-73
2022/03/02 08:33:53;;;;;;;35.60;25.90;;;;;;;-145.14;100.00;70583.66;4987423;28;20475;-73
2022/03/02 08:36:22;;;;;;;39.60;27.50;;;;;;;-145.14;100.00;70583.66;4989412;28;20507;-72
2022/03/02 08:38:52;;;;;;;40.23;27.87;;;;;;;-145.14;100.00;70583.66;4991575;28;20438;-73
2022/03/02 08:41:18;;;;;;;36.50;26.17;;;;;;;-145.14;100.00;70583.66;4987794;28;20519;-74
2022/03/02 08:43:45;;;;;;;34.73;25.63;;;;;;;-145.14;100.00;70583.66;4990861;28;20487;-72
2022/03/02 08:46:11;;;;;;;33.83;26.07;;;;;;;-145.14;100.00;70583.66;4989860;28;20443;-74
2022/03/02 08:48:36;;;;;;;39.07;25.97;;;;;;;-145.14;100.00;70583.66;4995421;28;23379;-71
2022/03/02 08:51:02;;;;;;;36.30;26.27;;;;;;;-145.14;100.00;70583.66;4989477;28;21037;-73
2022/03/02 08:53:30;;;;;;;35.00;25.87;;;;;;;-145.14;100.00;70583.66;4991482;28;21160;-73
2022/03/02 08:56:00;;;;;;;36.10;26.33;;;;;;;-145.14;100.00;70583.66;4990504;28;20460;-73
2022/03/02 08:58:26;;;;;;;33.17;24.80;;;;;;;-145.14;100.00;70583.66;4990139;28;20562;-72
2022/03/02 09:00:52;;;;;;;38.60;27.50;;;;;;;-145.14;100.00;70583.66;4987474;28;21208;-72
2022/03/02 09:03:21;;;;;;;36.80;26.50;;;;;;;-145.14;100.00;70583.66;4984471;28;20469;-72
2022/03/02 09:05:49;;;;;;;37.27;25.77;;;;;;;-145.14;100.00;70583.66;4984774;28;20483;-75
2022/03/02 09:08:15;;;;;;;39.40;26.83;;;;;;;-145.14;100.00;70583.66;4984877;28;20478;-74
2022/03/02 09:10:44;;;;;;;35.43;24.73;;;;;;;-145.14;100.00;70583.66;4986333;28;21243;-76
2022/03/02 09:13:12;;;;;;;36.83;25.70;;;;;;;-145.14;100.00;70583.66;4981992;28;20468;-74
2022/03/02 09:15:39;;;;;;;35.60;25.90;;;;;;;-145.14;100.00;70583.66;4988371;28;20471;-72
2022/03/02 09:18:06;;;;;;;33.90;24.03;;;;;;;-145.14;100.00;70583.66;4990548;28;21010;-72
2022/03/02 09:20:32;;;;;;;33.87;24.83;;;;;;;-145.14;100.00;70583.66;5008545;28;20492;-72
2022/03/02 09:23:01;;;;;;;34.17;25.30;;;;;;;-145.14;100.00;70583.66;4997884;23;20618;-73
2022/03/02 09:25:29;;;;;;;37.57;24.17;;;;;;;-145.14;100.00;70583.66;4990022;28;20196;-74
2022/03/02 09:27:56;;;;;;;35.00;23.87;;;;;;;-145.14;100.00;70583.66;4989538;28;20507;-73
2022/03/02 09:30:22;;;;;;;32.43;24.30;;;;;;;-145.14;100.00;70583.66;4989604;28;20444;-73
2022/03/02 09:32:52;;;;;;;34.30;24.40;;;;;;;-145.14;100.00;70583.66;4989676;28;20900;-73
2022/03/02 09:35:19;;;;;;;31.93;23.67;;;;;;;-145.14;100.00;70583.66;4983276;28;20514;-73
2022/03/02 09:37:49;;;;;;;35.33;22.63;;;;;;;-145.14;100.00;70583.66;4995690;28;20447;-73
2022/03/02 09:40:35;;;;;;;33.00;23.10;;;;;;;-145.14;100.00;70583.66;4990076;28;21098;-73
2022/03/02 09:43:02;;;;;;;31.63;23.93;;;;;;;-145.14;100.00;70583.66;4988559;28;20479;-73
2022/03/02 09:45:32;;;;;;;34.90;25.50;;;;;;;-145.14;100.00;70583.66;4976122;28;20436;-73
2022/03/02 09:48:03;;;;;;;32.53;22.40;;;;;;;-145.14;100.00;70583.66;4994077;28;20450;-73
2022/03/02 09:50:33;;;;;;;32.00;23.30;;;;;;;-145.14;100.00;70583.66;4995858;28;20534;-73
2022/03/02 09:53:02;;;;;;;31.93;23.67;;;;;;;-145.14;100.00;70583.66;4995853;28;20876;-73
2022/03/02 09:55:28;;;;;;;29.87;22.73;;;;;;;-145.14;100.00;70583.66;4998455;28;20565;-73
2022/03/02 09:57:58;;;;;;;31.67;23.33;;;;;;;-145.14;100.00;70583.66;4990492;28;21370;-73
2022/03/02 10:00:27;;;;;;;35.20;23.93;;;;;;;-145.14;100.00;70583.66;5000750;28;20447;-73
2022/03/02 10:02:55;;;;;;;32.10;22.50;;;;;;;-145.14;100.00;70583.66;4987328;28;20513;-73
2022/03/02 10:05:29;;;;;;;31.13;21.87;;;;;;;-145.14;100.00;70583.66;4993142;28;20546;-73
2022/03/02 10:08:07;;;;;;;36.77;23.20;;;;;;;-145.14;100.00;70583.66;4998336;28;21807;-73
2022/03/02 10:10:36;;;;;;;31.23;21.40;;;;;;;-145.14;100.00;70583.66;4990734;28;20450;-73
2022/03/02 10:13:05;;;;;;;30.93;23.53;;;;;;;-145.14;100.00;70583.66;4997232;28;21014;-73
2022/03/02 10:15:34;;;;;;;32.10;22.50;;;;;;;-145.14;100.00;70583.66;4994543;28;20468;-73
2022/03/02 10:18:02;;;;;;;32.60;22.97;;;;;;;-145.14;100.00;70583.66;4995275;28;20923;-73
2022/03/02 10:20:31;;;;;;;31.40;22.70;;;;;;;-145.14;100.00;70583.66;4995778;28;20539;-73
2022/03/02 10:23:22;;;;;;;30.33;22.07;;;;;;;-145.14;100.00;70583.66;4988777;28;20533;-74
2022/03/02 10:26:18;;;;;;;29.40;21.03;;;;;;;-145.14;100.00;70583.66;4989779;28;20428;-74
2022/03/02 10:28:49;;;;;;;33.53;22.67;;;;;;;-145.14;100.00;70583.66;4998261;28;20802;-73
2022/03/02 10:31:27;;;;;;;30.27;22.57;;;;;;;-145.14;100.00;70583.66;4994077;28;21963;-73
2022/03/02 10:34:01;;;;;;;30.67;21.37;;;;;;;-145.14;100.00;70583.66;4996798;28;20451;-74
2022/03/02 10:36:29;;;;;;;30.67;22.00;;;;;;;-145.14;100.00;70583.66;5008856;28;20926;-74
2022/03/02 10:39:22;;;;;;;34.17;22.40;;;;;;;-145.14;100.00;70583.66;4997152;28;20456;-74
2022/03/02 10:41:47;;;;;;;29.13;21.50;;;;;;;-145.14;100.00;70583.66;4994711;28;20471;-74
2022/03/02 10:44:29;;;;;;;31.13;23.60;;;;;;;-145.14;100.00;70583.66;4994335;28;20693;-74
2022/03/02 10:47:02;;;;;;;29.93;22.30;;;;;;;-145.14;100.00;70583.66;4998558;28;20185;-74
2022/03/02 10:49:29;;;;;;;31.03;21.67;;;;;;;-145.14;100.00;70583.66;4998324;28;20808;-74
2022/03/02 10:51:56;;;;;;;29.53;21.97;;;;;;;-145.14;100.00;70583.66;4994218;28;20470;-74
2022/03/02 10:54:24;;;;;;;26.90;21.07;;;;;;;-145.14;100.00;70583.66;4994941;28;20440;-73